Joaquin, Texas
Current Conditions -  °F | °C
As of 9:27 PM on Saturday 22 Nov 2014 (Local Time) from KSHV Reporting Station
Thunderstorm Thunderstorm  
Wind Chill: 62°   Ceiling: 2500
Heat Index: 62°   Visibility: 4mi
Dew Point: 60°   Wind: 9mph
Humidity: 93%   Direction: 120°ESE
Pressure: 29.82"   Gusts: 18mph
Location:  31.97°N, 94.05°W
Report Text: KSHV 230327Z 12008G16KT 4SM TSRA FEW018 BKN025CB OVC070 17/16 A2982 RMK AO2 TSB27 OCNL LTGICCC SW-W TS SW-W MOV NE P0008 T01670156
Loading
Personal Weather Stations






























Interactive Weather Map New forecast layout! Learn more

10-Day Weather Forecast

Advertisements
Track Severe Weather on mobile